sensor_id;sensor_type;location;lat;lon;timestamp;P1;durP1;ratioP1;P2;durP2;ratioP2
49015;SDS011;34830;44.064;12.566;2024-01-27T00:02:00;168.73;;;88.32;;
49015;SDS011;34830;44.064;12.566;2024-01-27T00:04:26;178.15;;;91.28;;
49015;SDS011;34830;44.064;12.566;2024-01-27T00:06:52;166.38;;;87.45;;
49015;SDS011;34830;44.064;12.566;2024-01-27T00:09:18;166.52;;;85.43;;
49015;SDS011;34830;44.064;12.566;2024-01-27T00:11:44;181.25;;;91.70;;
49015;SDS011;34830;44.064;12.566;2024-01-27T00:14:11;173.57;;;92.20;;
49015;SDS011;34830;44.064;12.566;2024-01-27T00:16:37;173.02;;;89.47;;
49015;SDS011;34830;44.064;12.566;2024-01-27T00:19:03;162.88;;;84.82;;
49015;SDS011;34830;44.064;12.566;2024-01-27T00:21:29;168.10;;;86.65;;
49015;SDS011;34830;44.064;12.566;2024-01-27T00:23:55;175.82;;;89.22;;
49015;SDS011;34830;44.064;12.566;2024-01-27T00:26:26;183.10;;;94.30;;
49015;SDS011;34830;44.064;12.566;2024-01-27T00:28:53;170.75;;;88.43;;
49015;SDS011;34830;44.064;12.566;2024-01-27T00:31:19;182.32;;;91.70;;
49015;SDS011;34830;44.064;12.566;2024-01-27T00:33:45;221.13;;;92.45;;
49015;SDS011;34830;44.064;12.566;2024-01-27T00:36:11;193.20;;;93.78;;
49015;SDS011;34830;44.064;12.566;2024-01-27T00:38:38;167.65;;;86.00;;
49015;SDS011;34830;44.064;12.566;2024-01-27T00:41:04;169.20;;;86.13;;
49015;SDS011;34830;44.064;12.566;2024-01-27T00:43:31;176.02;;;86.88;;
49015;SDS011;34830;44.064;12.566;2024-01-27T00:45:57;172.07;;;87.72;;
49015;SDS011;34830;44.064;12.566;2024-01-27T00:48:23;174.75;;;86.55;;
49015;SDS011;34830;44.064;12.566;2024-01-27T00:50:49;186.10;;;91.70;;
49015;SDS011;34830;44.064;12.566;2024-01-27T00:53:15;183.23;;;91.00;;
49015;SDS011;34830;44.064;12.566;2024-01-27T00:55:41;181.63;;;91.97;;
49015;SDS011;34830;44.064;12.566;2024-01-27T00:58:08;173.82;;;92.18;;
49015;SDS011;34830;44.064;12.566;2024-01-27T01:00:34;175.57;;;90.88;;
49015;SDS011;34830;44.064;12.566;2024-01-27T01:03:00;177.48;;;90.20;;
49015;SDS011;34830;44.064;12.566;2024-01-27T01:05:26;171.82;;;88.70;;
49015;SDS011;34830;44.064;12.566;2024-01-27T01:07:52;174.07;;;86.93;;
49015;SDS011;34830;44.064;12.566;2024-01-27T01:10:18;172.20;;;89.28;;
49015;SDS011;34830;44.064;12.566;2024-01-27T01:12:44;175.38;;;88.70;;
49015;SDS011;34830;44.064;12.566;2024-01-27T01:15:11;163.48;;;86.20;;
49015;SDS011;34830;44.064;12.566;2024-01-27T01:17:37;182.15;;;89.18;;
49015;SDS011;34830;44.064;12.566;2024-01-27T01:20:04;171.70;;;89.68;;
49015;SDS011;34830;44.064;12.566;2024-01-27T01:22:31;170.32;;;84.47;;
49015;SDS011;34830;44.064;12.566;2024-01-27T01:24:57;264.45;;;135.55;;
49015;SDS011;34830;44.064;12.566;2024-01-27T01:27:24;179.02;;;89.38;;
49015;SDS011;34830;44.064;12.566;2024-01-27T01:29:50;168.32;;;87.18;;
49015;SDS011;34830;44.064;12.566;2024-01-27T01:32:16;171.57;;;85.88;;
49015;SDS011;34830;44.064;12.566;2024-01-27T01:34:42;163.60;;;82.40;;
49015;SDS011;34830;44.064;12.566;2024-01-27T01:37:08;164.25;;;80.88;;
49015;SDS011;34830;44.064;12.566;2024-01-27T01:39:34;152.70;;;76.47;;
49015;SDS011;34830;44.064;12.566;2024-01-27T01:42:00;153.23;;;72.43;;
49015;SDS011;34830;44.064;12.566;2024-01-27T01:44:28;153.05;;;77.25;;
49015;SDS011;34830;44.064;12.566;2024-01-27T01:46:55;149.20;;;73.43;;
49015;SDS011;34830;44.064;12.566;2024-01-27T01:49:22;140.57;;;70.68;;
49015;SDS011;34830;44.064;12.566;2024-01-27T01:51:48;154.30;;;75.03;;
49015;SDS011;34830;44.064;12.566;2024-01-27T01:54:14;142.50;;;70.78;;
49015;SDS011;34830;44.064;12.566;2024-01-27T01:56:41;137.55;;;69.40;;
49015;SDS011;34830;44.064;12.566;2024-01-27T01:59:08;136.93;;;66.95;;
49015;SDS011;34830;44.064;12.566;2024-01-27T02:01:34;128.75;;;64.18;;
49015;SDS011;34830;44.064;12.566;2024-01-27T02:04:00;151.70;;;64.60;;
49015;SDS011;34830;44.064;12.566;2024-01-27T02:06:26;128.30;;;65.90;;
49015;SDS011;34830;44.064;12.566;2024-01-27T02:08:52;127.00;;;66.82;;
49015;SDS011;34830;44.064;12.566;2024-01-27T02:11:18;114.78;;;58.42;;
49015;SDS011;34830;44.064;12.566;2024-01-27T02:13:44;110.82;;;56.53;;
49015;SDS011;34830;44.064;12.566;2024-01-27T02:16:12;120.40;;;62.53;;
49015;SDS011;34830;44.064;12.566;2024-01-27T02:18:38;116.63;;;57.40;;
49015;SDS011;34830;44.064;12.566;2024-01-27T02:21:05;116.38;;;56.90;;
49015;SDS011;34830;44.064;12.566;2024-01-27T02:23:31;110.82;;;54.67;;
49015;SDS011;34830;44.064;12.566;2024-01-27T02:25:57;104.32;;;55.72;;
49015;SDS011;34830;44.064;12.566;2024-01-27T02:28:23;108.63;;;55.95;;
49015;SDS011;34830;44.064;12.566;2024-01-27T02:30:50;109.20;;;55.92;;
49015;SDS011;34830;44.064;12.566;2024-01-27T02:33:16;107.78;;;54.63;;
49015;SDS011;34830;44.064;12.566;2024-01-27T02:35:42;99.97;;;50.63;;
49015;SDS011;34830;44.064;12.566;2024-01-27T02:38:09;117.25;;;53.88;;
49015;SDS011;34830;44.064;12.566;2024-01-27T02:40:35;101.80;;;48.58;;
49015;SDS011;34830;44.064;12.566;2024-01-27T02:43:01;108.47;;;52.67;;
49015;SDS011;34830;44.064;12.566;2024-01-27T02:45:27;98.40;;;48.95;;
49015;SDS011;34830;44.064;12.566;2024-01-27T02:47:53;96.30;;;48.20;;
49015;SDS011;34830;44.064;12.566;2024-01-27T02:50:19;99.53;;;48.17;;
49015;SDS011;34830;44.064;12.566;2024-01-27T02:52:45;93.40;;;46.05;;
49015;SDS011;34830;44.064;12.566;2024-01-27T02:55:11;101.18;;;49.95;;
49015;SDS011;34830;44.064;12.566;2024-01-27T02:57:38;101.97;;;49.22;;
49015;SDS011;34830;44.064;12.566;2024-01-27T03:00:06;108.47;;;52.20;;
49015;SDS011;34830;44.064;12.566;2024-01-27T03:02:33;90.85;;;48.28;;
49015;SDS011;34830;44.064;12.566;2024-01-27T03:05:00;95.95;;;48.17;;
49015;SDS011;34830;44.064;12.566;2024-01-27T03:07:26;98.07;;;47.80;;
49015;SDS011;34830;44.064;12.566;2024-01-27T03:09:52;99.18;;;46.38;;
49015;SDS011;34830;44.064;12.566;2024-01-27T03:12:19;89.78;;;47.25;;
49015;SDS011;34830;44.064;12.566;2024-01-27T03:14:45;94.55;;;46.67;;
49015;SDS011;34830;44.064;12.566;2024-01-27T03:17:12;99.43;;;46.10;;
49015;SDS011;34830;44.064;12.566;2024-01-27T03:19:38;87.15;;;45.58;;
49015;SDS011;34830;44.064;12.566;2024-01-27T03:22:04;85.78;;;42.50;;
49015;SDS011;34830;44.064;12.566;2024-01-27T03:24:30;89.95;;;43.83;;
49015;SDS011;34830;44.064;12.566;2024-01-27T03:26:56;85.90;;;42.53;;
49015;SDS011;34830;44.064;12.566;2024-01-27T03:29:22;89.55;;;43.65;;
49015;SDS011;34830;44.064;12.566;2024-01-27T03:31:48;87.50;;;44.60;;
49015;SDS011;34830;44.064;12.566;2024-01-27T03:34:15;86.50;;;41.40;;
49015;SDS011;34830;44.064;12.566;2024-01-27T03:36:44;85.53;;;41.58;;
49015;SDS011;34830;44.064;12.566;2024-01-27T03:39:13;76.13;;;38.15;;
49015;SDS011;34830;44.064;12.566;2024-01-27T03:41:39;64.55;;;33.28;;
49015;SDS011;34830;44.064;12.566;2024-01-27T03:44:05;65.57;;;34.72;;
49015;SDS011;34830;44.064;12.566;2024-01-27T03:46:31;64.95;;;33.03;;
49015;SDS011;34830;44.064;12.566;2024-01-27T03:48:58;64.35;;;34.47;;
49015;SDS011;34830;44.064;12.566;2024-01-27T03:51:24;61.50;;;32.75;;
49015;SDS011;34830;44.064;12.566;2024-01-27T03:53:51;59.95;;;30.45;;
49015;SDS011;34830;44.064;12.566;2024-01-27T03:56:17;52.80;;;27.88;;
49015;SDS011;34830;44.064;12.566;2024-01-27T03:58:44;55.40;;;28.50;;
49015;SDS011;34830;44.064;12.566;2024-01-27T04:01:10;49.80;;;25.70;;
49015;SDS011;34830;44.064;12.566;2024-01-27T04:03:36;50.45;;;25.45;;
49015;SDS011;34830;44.064;12.566;2024-01-27T04:06:02;46.08;;;23.98;;
49015;SDS011;34830;44.064;12.566;2024-01-27T04:08:31;45.75;;;24.35;;
49015;SDS011;34830;44.064;12.566;2024-01-27T04:10:57;44.28;;;23.35;;
49015;SDS011;34830;44.064;12.566;2024-01-27T04:13:23;42.80;;;22.95;;
49015;SDS011;34830;44.064;12.566;2024-01-27T04:15:49;46.08;;;24.95;;
49015;SDS011;34830;44.064;12.566;2024-01-27T04:18:17;44.50;;;23.95;;
49015;SDS011;34830;44.064;12.566;2024-01-27T04:20:43;42.33;;;21.80;;
49015;SDS011;34830;44.064;12.566;2024-01-27T04:23:11;44.90;;;22.83;;
49015;SDS011;34830;44.064;12.566;2024-01-27T04:25:37;52.97;;;25.67;;
49015;SDS011;34830;44.064;12.566;2024-01-27T04:28:03;43.42;;;21.38;;
49015;SDS011;34830;44.064;12.566;2024-01-27T04:30:29;45.15;;;22.95;;
49015;SDS011;34830;44.064;12.566;2024-01-27T04:32:55;43.85;;;22.75;;
49015;SDS011;34830;44.064;12.566;2024-01-27T04:35:21;41.40;;;19.95;;
49015;SDS011;34830;44.064;12.566;2024-01-27T04:37:47;37.97;;;20.25;;
49015;SDS011;34830;44.064;12.566;2024-01-27T04:40:13;40.47;;;21.77;;
49015;SDS011;34830;44.064;12.566;2024-01-27T04:42:39;38.97;;;21.48;;
49015;SDS011;34830;44.064;12.566;2024-01-27T04:45:06;38.90;;;20.15;;
49015;SDS011;34830;44.064;12.566;2024-01-27T04:47:32;37.58;;;20.13;;
49015;SDS011;34830;44.064;12.566;2024-01-27T04:49:58;38.58;;;19.90;;
49015;SDS011;34830;44.064;12.566;2024-01-27T04:52:25;37.17;;;20.02;;
49015;SDS011;34830;44.064;12.566;2024-01-27T04:54:51;39.60;;;18.63;;
49015;SDS011;34830;44.064;12.566;2024-01-27T04:57:17;34.42;;;18.40;;
49015;SDS011;34830;44.064;12.566;2024-01-27T04:59:43;30.98;;;17.70;;
49015;SDS011;34830;44.064;12.566;2024-01-27T05:02:10;37.50;;;19.20;;
49015;SDS011;34830;44.064;12.566;2024-01-27T05:04:37;34.70;;;18.02;;
49015;SDS011;34830;44.064;12.566;2024-01-27T05:07:03;33.53;;;17.83;;
49015;SDS011;34830;44.064;12.566;2024-01-27T05:09:29;33.55;;;17.25;;
49015;SDS011;34830;44.064;12.566;2024-01-27T05:11:56;29.60;;;17.30;;
49015;SDS011;34830;44.064;12.566;2024-01-27T05:14:22;29.77;;;15.10;;
49015;SDS011;34830;44.064;12.566;2024-01-27T05:16:48;32.17;;;16.88;;
49015;SDS011;34830;44.064;12.566;2024-01-27T05:19:14;33.95;;;17.80;;
49015;SDS011;34830;44.064;12.566;2024-01-27T05:21:42;31.38;;;16.23;;
49015;SDS011;34830;44.064;12.566;2024-01-27T05:24:08;29.75;;;15.52;;
49015;SDS011;34830;44.064;12.566;2024-01-27T05:26:35;28.65;;;15.52;;
49015;SDS011;34830;44.064;12.566;2024-01-27T05:29:01;29.67;;;17.20;;
49015;SDS011;34830;44.064;12.566;2024-01-27T05:31:27;29.63;;;16.20;;
49015;SDS011;34830;44.064;12.566;2024-01-27T05:33:53;32.55;;;17.35;;
49015;SDS011;34830;44.064;12.566;2024-01-27T05:36:19;29.65;;;16.98;;
49015;SDS011;34830;44.064;12.566;2024-01-27T05:38:45;27.83;;;16.02;;
49015;SDS011;34830;44.064;12.566;2024-01-27T05:41:11;27.30;;;15.77;;
49015;SDS011;34830;44.064;12.566;2024-01-27T05:43:37;28.15;;;16.10;;
49015;SDS011;34830;44.064;12.566;2024-01-27T05:46:03;31.77;;;16.95;;
49015;SDS011;34830;44.064;12.566;2024-01-27T05:48:29;31.67;;;16.55;;
49015;SDS011;34830;44.064;12.566;2024-01-27T05:50:59;34.80;;;17.15;;
49015;SDS011;34830;44.064;12.566;2024-01-27T05:53:26;41.40;;;20.35;;
49015;SDS011;34830;44.064;12.566;2024-01-27T05:55:53;51.28;;;26.10;;
49015;SDS011;34830;44.064;12.566;2024-01-27T05:58:20;60.58;;;27.85;;
49015;SDS011;34830;44.064;12.566;2024-01-27T06:00:49;63.85;;;30.13;;
49015;SDS011;34830;44.064;12.566;2024-01-27T06:03:15;61.03;;;31.42;;
49015;SDS011;34830;44.064;12.566;2024-01-27T06:05:42;68.68;;;34.30;;
49015;SDS011;34830;44.064;12.566;2024-01-27T06:08:08;77.25;;;38.65;;
49015;SDS011;34830;44.064;12.566;2024-01-27T06:10:35;74.22;;;37.08;;
49015;SDS011;34830;44.064;12.566;2024-01-27T06:13:04;80.75;;;39.75;;
49015;SDS011;34830;44.064;12.566;2024-01-27T06:15:30;71.97;;;36.45;;
49015;SDS011;34830;44.064;12.566;2024-01-27T06:17:59;80.35;;;39.20;;
49015;SDS011;34830;44.064;12.566;2024-01-27T06:20:27;81.60;;;41.08;;
49015;SDS011;34830;44.064;12.566;2024-01-27T06:22:53;91.90;;;44.92;;
49015;SDS011;34830;44.064;12.566;2024-01-27T06:25:22;95.05;;;46.40;;
49015;SDS011;34830;44.064;12.566;2024-01-27T06:27:48;112.43;;;50.80;;
49015;SDS011;34830;44.064;12.566;2024-01-27T06:30:15;104.38;;;49.30;;
49015;SDS011;34830;44.064;12.566;2024-01-27T06:32:41;98.00;;;48.88;;
49015;SDS011;34830;44.064;12.566;2024-01-27T06:35:08;98.22;;;45.58;;
49015;SDS011;34830;44.064;12.566;2024-01-27T06:37:34;100.63;;;48.92;;
49015;SDS011;34830;44.064;12.566;2024-01-27T06:40:01;91.97;;;45.22;;
49015;SDS011;34830;44.064;12.566;2024-01-27T06:42:27;91.68;;;47.38;;
49015;SDS011;34830;44.064;12.566;2024-01-27T06:44:53;87.97;;;44.45;;
49015;SDS011;34830;44.064;12.566;2024-01-27T06:47:19;91.43;;;46.97;;
49015;SDS011;34830;44.064;12.566;2024-01-27T06:49:45;91.10;;;45.20;;
49015;SDS011;34830;44.064;12.566;2024-01-27T06:52:11;91.32;;;45.53;;
49015;SDS011;34830;44.064;12.566;2024-01-27T06:54:38;82.45;;;41.60;;
49015;SDS011;34830;44.064;12.566;2024-01-27T06:57:19;92.05;;;43.28;;
49015;SDS011;34830;44.064;12.566;2024-01-27T06:59:50;83.35;;;42.17;;
49015;SDS011;34830;44.064;12.566;2024-01-27T07:02:25;76.57;;;40.63;;
49015;SDS011;34830;44.064;12.566;2024-01-27T07:04:57;80.00;;;41.30;;
49015;SDS011;34830;44.064;12.566;2024-01-27T07:07:25;81.77;;;41.77;;
49015;SDS011;34830;44.064;12.566;2024-01-27T07:09:54;75.28;;;40.08;;
49015;SDS011;34830;44.064;12.566;2024-01-27T07:12:21;77.80;;;40.00;;
49015;SDS011;34830;44.064;12.566;2024-01-27T07:14:47;87.28;;;42.05;;
49015;SDS011;34830;44.064;12.566;2024-01-27T07:17:13;79.57;;;39.00;;
49015;SDS011;34830;44.064;12.566;2024-01-27T07:19:39;74.18;;;38.08;;
49015;SDS011;34830;44.064;12.566;2024-01-27T07:22:05;71.35;;;36.25;;
49015;SDS011;34830;44.064;12.566;2024-01-27T07:24:31;71.22;;;37.45;;
49015;SDS011;34830;44.064;12.566;2024-01-27T07:26:59;84.50;;;40.45;;
49015;SDS011;34830;44.064;12.566;2024-01-27T07:29:26;70.53;;;35.42;;
49015;SDS011;34830;44.064;12.566;2024-01-27T07:31:52;72.80;;;36.40;;
49015;SDS011;34830;44.064;12.566;2024-01-27T07:34:19;71.78;;;37.97;;
49015;SDS011;34830;44.064;12.566;2024-01-27T07:36:45;71.63;;;38.97;;
49015;SDS011;34830;44.064;12.566;2024-01-27T07:39:11;68.43;;;36.90;;
49015;SDS011;34830;44.064;12.566;2024-01-27T07:41:37;64.35;;;36.80;;
49015;SDS011;34830;44.064;12.566;2024-01-27T07:44:09;69.68;;;36.28;;
49015;SDS011;34830;44.064;12.566;2024-01-27T07:46:37;66.45;;;36.20;;
49015;SDS011;34830;44.064;12.566;2024-01-27T07:49:03;58.33;;;32.10;;
49015;SDS011;34830;44.064;12.566;2024-01-27T07:51:30;67.05;;;33.67;;
49015;SDS011;34830;44.064;12.566;2024-01-27T07:53:56;62.00;;;34.95;;
49015;SDS011;34830;44.064;12.566;2024-01-27T07:56:23;60.42;;;33.20;;
49015;SDS011;34830;44.064;12.566;2024-01-27T07:58:49;59.92;;;33.30;;
49015;SDS011;34830;44.064;12.566;2024-01-27T08:01:15;61.67;;;33.00;;
49015;SDS011;34830;44.064;12.566;2024-01-27T08:03:42;61.78;;;31.35;;
49015;SDS011;34830;44.064;12.566;2024-01-27T08:06:13;62.15;;;32.45;;
49015;SDS011;34830;44.064;12.566;2024-01-27T08:08:44;53.33;;;29.17;;
49015;SDS011;34830;44.064;12.566;2024-01-27T08:11:14;51.88;;;27.98;;
49015;SDS011;34830;44.064;12.566;2024-01-27T08:13:41;48.92;;;27.75;;
49015;SDS011;34830;44.064;12.566;2024-01-27T08:16:08;43.97;;;25.58;;
49015;SDS011;34830;44.064;12.566;2024-01-27T08:18:41;40.23;;;24.73;;
49015;SDS011;34830;44.064;12.566;2024-01-27T08:21:10;41.00;;;24.80;;
49015;SDS011;34830;44.064;12.566;2024-01-27T08:23:37;40.47;;;23.02;;
49015;SDS011;34830;44.064;12.566;2024-01-27T08:26:04;45.17;;;23.10;;
49015;SDS011;34830;44.064;12.566;2024-01-27T08:28:30;43.10;;;25.20;;
49015;SDS011;34830;44.064;12.566;2024-01-27T08:30:56;38.38;;;21.35;;
49015;SDS011;34830;44.064;12.566;2024-01-27T08:33:22;44.40;;;23.45;;
49015;SDS011;34830;44.064;12.566;2024-01-27T08:35:48;51.67;;;26.75;;
49015;SDS011;34830;44.064;12.566;2024-01-27T08:38:14;43.38;;;25.88;;
49015;SDS011;34830;44.064;12.566;2024-01-27T08:40:41;37.53;;;23.20;;
49015;SDS011;34830;44.064;12.566;2024-01-27T08:43:07;45.50;;;24.90;;
49015;SDS011;34830;44.064;12.566;2024-01-27T08:45:33;44.75;;;23.27;;
49015;SDS011;34830;44.064;12.566;2024-01-27T08:47:59;38.00;;;22.50;;
49015;SDS011;34830;44.064;12.566;2024-01-27T08:50:25;47.65;;;24.85;;
49015;SDS011;34830;44.064;12.566;2024-01-27T08:52:51;39.60;;;23.80;;
49015;SDS011;34830;44.064;12.566;2024-01-27T08:55:18;42.08;;;22.67;;
49015;SDS011;34830;44.064;12.566;2024-01-27T08:57:46;36.38;;;19.58;;
49015;SDS011;34830;44.064;12.566;2024-01-27T09:00:12;34.58;;;19.65;;
49015;SDS011;34830;44.064;12.566;2024-01-27T09:02:38;30.83;;;19.15;;
49015;SDS011;34830;44.064;12.566;2024-01-27T09:05:05;33.63;;;19.85;;
49015;SDS011;34830;44.064;12.566;2024-01-27T09:07:31;37.30;;;20.75;;
49015;SDS011;34830;44.064;12.566;2024-01-27T09:09:57;36.40;;;19.77;;
49015;SDS011;34830;44.064;12.566;2024-01-27T09:12:23;31.70;;;18.52;;
49015;SDS011;34830;44.064;12.566;2024-01-27T09:14:49;36.75;;;20.45;;
49015;SDS011;34830;44.064;12.566;2024-01-27T09:17:16;36.50;;;20.10;;
49015;SDS011;34830;44.064;12.566;2024-01-27T09:19:42;36.50;;;19.48;;
49015;SDS011;34830;44.064;12.566;2024-01-27T09:22:08;34.67;;;18.92;;
49015;SDS011;34830;44.064;12.566;2024-01-27T09:24:34;29.40;;;19.83;;
49015;SDS011;34830;44.064;12.566;2024-01-27T09:27:00;32.05;;;19.27;;
49015;SDS011;34830;44.064;12.566;2024-01-27T09:29:27;35.33;;;20.23;;
49015;SDS011;34830;44.064;12.566;2024-01-27T09:31:54;31.45;;;19.63;;
49015;SDS011;34830;44.064;12.566;2024-01-27T09:34:20;40.45;;;20.45;;
49015;SDS011;34830;44.064;12.566;2024-01-27T09:36:46;35.85;;;19.92;;
49015;SDS011;34830;44.064;12.566;2024-01-27T09:39:13;43.25;;;24.00;;
49015;SDS011;34830;44.064;12.566;2024-01-27T09:41:39;49.88;;;25.83;;
49015;SDS011;34830;44.064;12.566;2024-01-27T09:44:05;40.85;;;25.35;;
49015;SDS011;34830;44.064;12.566;2024-01-27T09:46:31;39.78;;;24.85;;
49015;SDS011;34830;44.064;12.566;2024-01-27T09:48:58;43.03;;;24.75;;
49015;SDS011;34830;44.064;12.566;2024-01-27T09:51:24;40.28;;;24.73;;
49015;SDS011;34830;44.064;12.566;2024-01-27T09:53:51;43.60;;;25.52;;
49015;SDS011;34830;44.064;12.566;2024-01-27T09:56:18;40.00;;;24.60;;
49015;SDS011;34830;44.064;12.566;2024-01-27T09:58:45;41.60;;;25.58;;
49015;SDS011;34830;44.064;12.566;2024-01-27T10:01:11;45.38;;;26.95;;
49015;SDS011;34830;44.064;12.566;2024-01-27T10:03:38;42.53;;;27.02;;
49015;SDS011;34830;44.064;12.566;2024-01-27T10:06:07;43.22;;;25.88;;
49015;SDS011;34830;44.064;12.566;2024-01-27T10:08:35;45.72;;;26.65;;
49015;SDS011;34830;44.064;12.566;2024-01-27T10:11:05;40.35;;;25.55;;
49015;SDS011;34830;44.064;12.566;2024-01-27T10:13:33;40.25;;;26.52;;
49015;SDS011;34830;44.064;12.566;2024-01-27T10:16:00;40.42;;;25.63;;
49015;SDS011;34830;44.064;12.566;2024-01-27T10:18:30;46.83;;;26.70;;
49015;SDS011;34830;44.064;12.566;2024-01-27T10:20:57;45.03;;;25.30;;
49015;SDS011;34830;44.064;12.566;2024-01-27T10:23:24;42.85;;;26.83;;
49015;SDS011;34830;44.064;12.566;2024-01-27T10:25:50;39.80;;;26.73;;
49015;SDS011;34830;44.064;12.566;2024-01-27T10:28:17;39.72;;;25.42;;
49015;SDS011;34830;44.064;12.566;2024-01-27T10:30:43;45.50;;;27.77;;
49015;SDS011;34830;44.064;12.566;2024-01-27T10:33:10;47.45;;;27.05;;
49015;SDS011;34830;44.064;12.566;2024-01-27T10:35:38;47.60;;;27.92;;
49015;SDS011;34830;44.064;12.566;2024-01-27T10:38:04;41.53;;;26.67;;
49015;SDS011;34830;44.064;12.566;2024-01-27T10:40:31;47.63;;;28.52;;
49015;SDS011;34830;44.064;12.566;2024-01-27T10:45:34;44.58;;;27.08;;
49015;SDS011;34830;44.064;12.566;2024-01-27T10:48:02;41.17;;;26.60;;
49015;SDS011;34830;44.064;12.566;2024-01-27T10:50:29;43.47;;;27.30;;
49015;SDS011;34830;44.064;12.566;2024-01-27T10:52:59;42.22;;;27.45;;
49015;SDS011;34830;44.064;12.566;2024-01-27T10:55:26;49.17;;;29.35;;
49015;SDS011;34830;44.064;12.566;2024-01-27T10:57:52;53.15;;;31.30;;
49015;SDS011;34830;44.064;12.566;2024-01-27T11:00:19;45.20;;;28.75;;
49015;SDS011;34830;44.064;12.566;2024-01-27T11:02:46;46.35;;;29.58;;
49015;SDS011;34830;44.064;12.566;2024-01-27T11:05:18;52.42;;;34.15;;
49015;SDS011;34830;44.064;12.566;2024-01-27T11:07:45;57.55;;;35.05;;
49015;SDS011;34830;44.064;12.566;2024-01-27T11:10:12;52.28;;;32.33;;
49015;SDS011;34830;44.064;12.566;2024-01-27T11:12:38;55.88;;;34.00;;
49015;SDS011;34830;44.064;12.566;2024-01-27T11:15:06;54.20;;;34.78;;
49015;SDS011;34830;44.064;12.566;2024-01-27T11:17:39;56.35;;;33.35;;
49015;SDS011;34830;44.064;12.566;2024-01-27T11:20:10;62.78;;;34.50;;
49015;SDS011;34830;44.064;12.566;2024-01-27T11:22:42;58.28;;;32.95;;
49015;SDS011;34830;44.064;12.566;2024-01-27T11:27:39;55.67;;;35.05;;
49015;SDS011;34830;44.064;12.566;2024-01-27T11:30:06;51.67;;;33.10;;
49015;SDS011;34830;44.064;12.566;2024-01-27T11:32:50;59.28;;;33.53;;
49015;SDS011;34830;44.064;12.566;2024-01-27T11:35:19;55.17;;;34.25;;
49015;SDS011;34830;44.064;12.566;2024-01-27T11:37:46;53.60;;;34.08;;
49015;SDS011;34830;44.064;12.566;2024-01-27T11:40:13;59.00;;;36.80;;
49015;SDS011;34830;44.064;12.566;2024-01-27T11:42:41;57.75;;;34.70;;
49015;SDS011;34830;44.064;12.566;2024-01-27T11:45:08;55.22;;;33.22;;
49015;SDS011;34830;44.064;12.566;2024-01-27T11:47:35;49.60;;;33.28;;
49015;SDS011;34830;44.064;12.566;2024-01-27T11:50:01;53.58;;;34.17;;
49015;SDS011;34830;44.064;12.566;2024-01-27T11:52:28;50.78;;;34.08;;
49015;SDS011;34830;44.064;12.566;2024-01-27T11:54:55;57.28;;;35.78;;
49015;SDS011;34830;44.064;12.566;2024-01-27T11:57:21;57.40;;;34.60;;
49015;SDS011;34830;44.064;12.566;2024-01-27T11:59:48;51.22;;;31.13;;
49015;SDS011;34830;44.064;12.566;2024-01-27T12:02:14;52.58;;;33.10;;
49015;SDS011;34830;44.064;12.566;2024-01-27T12:04:40;55.13;;;35.38;;
49015;SDS011;34830;44.064;12.566;2024-01-27T12:07:06;68.93;;;42.92;;
49015;SDS011;34830;44.064;12.566;2024-01-27T12:09:33;64.13;;;41.45;;
49015;SDS011;34830;44.064;12.566;2024-01-27T12:11:59;64.25;;;39.13;;
49015;SDS011;34830;44.064;12.566;2024-01-27T12:14:25;59.15;;;38.78;;
49015;SDS011;34830;44.064;12.566;2024-01-27T12:16:51;61.05;;;39.00;;
49015;SDS011;34830;44.064;12.566;2024-01-27T12:19:19;67.88;;;41.72;;
49015;SDS011;34830;44.064;12.566;2024-01-27T12:21:48;66.90;;;40.58;;
49015;SDS011;34830;44.064;12.566;2024-01-27T12:24:15;66.13;;;41.97;;
49015;SDS011;34830;44.064;12.566;2024-01-27T12:26:43;65.30;;;39.25;;
49015;SDS011;34830;44.064;12.566;2024-01-27T12:29:10;67.20;;;40.17;;
49015;SDS011;34830;44.064;12.566;2024-01-27T12:31:36;73.13;;;43.08;;
49015;SDS011;34830;44.064;12.566;2024-01-27T12:34:03;66.43;;;42.42;;
49015;SDS011;34830;44.064;12.566;2024-01-27T12:36:29;74.15;;;43.33;;
49015;SDS011;34830;44.064;12.566;2024-01-27T12:39:04;65.72;;;40.58;;
49015;SDS011;34830;44.064;12.566;2024-01-27T12:41:30;70.43;;;43.70;;
49015;SDS011;34830;44.064;12.566;2024-01-27T12:43:59;69.43;;;39.78;;
49015;SDS011;34830;44.064;12.566;2024-01-27T12:46:28;71.28;;;41.92;;
49015;SDS011;34830;44.064;12.566;2024-01-27T12:48:54;72.00;;;42.33;;
49015;SDS011;34830;44.064;12.566;2024-01-27T12:51:21;68.28;;;41.78;;
49015;SDS011;34830;44.064;12.566;2024-01-27T12:53:47;73.70;;;42.67;;
49015;SDS011;34830;44.064;12.566;2024-01-27T12:56:13;75.72;;;42.55;;
49015;SDS011;34830;44.064;12.566;2024-01-27T12:58:40;73.90;;;41.75;;
49015;SDS011;34830;44.064;12.566;2024-01-27T13:01:07;75.93;;;44.13;;
49015;SDS011;34830;44.064;12.566;2024-01-27T13:03:34;76.47;;;44.97;;
49015;SDS011;34830;44.064;12.566;2024-01-27T13:06:00;74.53;;;44.25;;
49015;SDS011;34830;44.064;12.566;2024-01-27T13:08:27;71.63;;;42.55;;
49015;SDS011;34830;44.064;12.566;2024-01-27T13:10:53;77.30;;;44.22;;
49015;SDS011;34830;44.064;12.566;2024-01-27T13:13:19;85.72;;;45.75;;
49015;SDS011;34830;44.064;12.566;2024-01-27T13:15:45;82.65;;;46.42;;
49015;SDS011;34830;44.064;12.566;2024-01-27T13:18:12;87.93;;;47.33;;
49015;SDS011;34830;44.064;12.566;2024-01-27T13:20:38;83.65;;;46.55;;
49015;SDS011;34830;44.064;12.566;2024-01-27T13:23:06;88.82;;;46.95;;
49015;SDS011;34830;44.064;12.566;2024-01-27T13:25:33;85.57;;;46.90;;
49015;SDS011;34830;44.064;12.566;2024-01-27T13:27:59;82.50;;;47.63;;
49015;SDS011;34830;44.064;12.566;2024-01-27T13:30:25;92.45;;;48.05;;
49015;SDS011;34830;44.064;12.566;2024-01-27T13:32:52;86.38;;;46.35;;
49015;SDS011;34830;44.064;12.566;2024-01-27T13:35:18;97.90;;;50.38;;
49015;SDS011;34830;44.064;12.566;2024-01-27T13:37:44;89.70;;;48.25;;
49015;SDS011;34830;44.064;12.566;2024-01-27T13:40:11;91.15;;;48.47;;
49015;SDS011;34830;44.064;12.566;2024-01-27T13:42:38;84.82;;;44.60;;
49015;SDS011;34830;44.064;12.566;2024-01-27T13:45:04;84.70;;;45.85;;
49015;SDS011;34830;44.064;12.566;2024-01-27T13:47:30;75.97;;;41.53;;
49015;SDS011;34830;44.064;12.566;2024-01-27T13:49:57;82.55;;;42.72;;
49015;SDS011;34830;44.064;12.566;2024-01-27T13:52:23;72.78;;;41.30;;
49015;SDS011;34830;44.064;12.566;2024-01-27T13:54:50;77.60;;;41.10;;
49015;SDS011;34830;44.064;12.566;2024-01-27T13:57:16;82.55;;;42.95;;
49015;SDS011;34830;44.064;12.566;2024-01-27T13:59:42;78.05;;;41.20;;
49015;SDS011;34830;44.064;12.566;2024-01-27T14:02:08;75.47;;;41.78;;
49015;SDS011;34830;44.064;12.566;2024-01-27T14:04:34;73.07;;;40.88;;
49015;SDS011;34830;44.064;12.566;2024-01-27T14:07:00;81.35;;;42.70;;
49015;SDS011;34830;44.064;12.566;2024-01-27T14:09:32;80.68;;;42.53;;